Flight Track Log - Related Links

Times and Time Zones

All times are in EDT time to prevent confusion due to time zone crossing. See the QXE2294 flight status page for this flight to view local times or setup timezone preferences in your user account.


Time Position Orientation Groundspeed Altitude Reporting Facility
EDT Latitude Longitude Course Direction KTS MPH feet Rate Location/Type
Tue 09:04:29 AM 44.2667 -121.1236 325° Northwest 151 174 4,500  Level Seattle Center
Tue 09:05:30 AM 44.3094 -121.1347 349° North 194 223 6,200 2,033 Climbing Seattle Center
Tue 09:06:30 AM 44.3442 -121.1944 309° West 199 229 8,600 2,100 Climbing Seattle Center
Tue 09:07:30 AM 44.3958 -121.2403 328° Northwest 212 244 10,400 1,884 Climbing Seattle Center
Tue 09:08:00 AM 44.6357 -121.5022 325° Northwest  Level FlightAware Approximate
Tue 09:08:31 AM 44.4500 -121.2958 324° Northwest 233 268 12,400  Level Seattle Center
Tue 09:09:00 AM 44.6995 -121.5661 325° Northwest  Level FlightAware Approximate
Tue 09:09:31 AM 44.5069 -121.3514 325° Northwest 245 282 14,500  Level Seattle Center
Tue 09:10:31 AM 44.5608 -121.4031 326° Northwest 240 276 16,400 1,736 Climbing Seattle Center
Tue 09:11:32 AM 44.6136 -121.4542 325° Northwest 232 267 18,000 1,289 Climbing Seattle Center
Tue 09:12:32 AM 44.6667 -121.5058 325° Northwest 231 266 19,000 1,140 Climbing Seattle Center
Tue 09:13:33 AM 44.7208 -121.5592 325° Northwest 235 270 20,300 1,240 Climbing Seattle Center
Tue 09:14:33 AM 44.7744 -121.6111 325° Northwest 235 270 21,500 1,200 Climbing Seattle Center
Tue 09:15:33 AM 44.8275 -121.6644 325° Northwest 233 268 22,700 1,041 Climbing Seattle Center
Tue 09:16:34 AM 44.8794 -121.7164 325° Northwest 231 266 23,600 645 Climbing Seattle Center
Tue 09:17:34 AM 44.9350 -121.7711 325° Northwest 239 275 24,000 198 Climbing Seattle Center
Tue 09:18:35 AM 44.9950 -121.8303 325° Northwest 262 302 24,000  Level Seattle Center
Tue 09:19:36 AM 45.0581 -121.8936 325° Northwest 277 319 24,000 -50 Level Seattle Center
Tue 09:20:36 AM 45.1178 -121.9547 324° Northwest 276 318 23,900 -50 Descending Seattle Center
Tue 09:21:37 AM 45.1822 -122.0186 325° Northwest 285 328 23,900  Level Seattle Center
Tue 09:22:37 AM 45.2456 -122.0825 325° Northwest 281 323 23,900  Level Seattle Center
Tue 09:23:38 AM 45.3219 -122.1578 325° Northwest 280 322 23,900 49 Level Seattle Center
Tue 09:24:39 AM 45.3856 -122.2228 324° Northwest 282 325 24,000  Climbing Seattle Center
Tue 09:25:39 AM 45.4492 -122.2858 325° Northwest 281 323 23,900 -50 Descending Seattle Center
Tue 09:26:40 AM 45.5111 -122.3489 325° Northwest 276 318 23,900  Level Seattle Center
Tue 09:27:41 AM 45.5731 -122.4131 324° Northwest 277 319 23,900  Level Seattle Center
Tue 09:28:41 AM 45.6358 -122.4764 325° Northwest 278 320 23,900  Level Seattle Center
Tue 09:29:42 AM 45.6983 -122.5400 325° Northwest 277 319 23,900 49 Level Seattle Center
Tue 09:30:43 AM 45.7614 -122.5992 327° Northwest 276 318 24,000  Climbing Seattle Center
Tue 09:31:43 AM 45.8378 -122.6119 353° North 277 319 23,900 -50 Descending Seattle Center
Tue 09:32:44 AM 45.9139 -122.6286 351° North 276 318 23,900  Level Seattle Center
Tue 09:33:45 AM 45.9886 -122.6469 350° North 273 314 23,900  Level Seattle Center
Tue 09:34:45 AM 46.0639 -122.6642 351° North 274 315 23,900  Level Seattle Center
Tue 09:35:46 AM 46.1392 -122.6819 351° North 275 316 23,900 49 Level Seattle Center
Tue 09:36:47 AM 46.2147 -122.6986 351° North 277 319 24,000 50 Climbing Seattle Center
Tue 09:37:47 AM 46.3083 -122.7211 351° North 285 328 24,000  Level Seattle Center
Tue 09:38:48 AM 46.3903 -122.7272 357° North 295 339 24,000 -148 Level Seattle Center
Tue 09:39:49 AM 46.4719 -122.7164 North 297 342 23,700 -984 Descending Seattle Center
Tue 09:40:50 AM 46.5506 -122.7144 North 289 333 22,000 -1,934 Descending Seattle Center
Tue 09:41:50 AM 46.6314 -122.7133 North 291 335 19,800 -2,132 Descending Seattle Center
Tue 09:42:51 AM 46.7200 -122.7069 North 316 364 17,700 -2,496 Descending Seattle Center
Tue 09:43:43 AM 46.8064 -122.7042 North 317 365 15,100 -2,773 Descending Seattle Center
Tue 09:44:50 AM 46.8811 -122.6222 37° Northeast 322 371 12,200 -2,213 Descending Seattle Center
Tue 09:45:45 AM 46.9367 -122.5436 44° Northeast 301 346 10,600 -1,321 Descending Seattle Center
Tue 09:46:39 AM 46.9839 -122.4758 44° Northeast 254 292 9,800 -783 Descending Seattle Center
Tue 09:46:54 AM 46.9872 -122.4700 50° Northeast 259 298 9,700 -1,377 Descending Seattle Center
Tue 09:47:40 AM 47.0369 -122.4047 42° Northeast 257 296 8,400 -1,672 Descending Seattle Center
Tue 09:47:55 AM 47.0508 -122.3856 43° Northeast 262 302 8,000 -1,556 Descending Seattle Center
Tue 09:48:34 AM 47.0881 -122.3442 37° Northeast 253 291 7,000 -1,400 Descending Seattle Center
Tue 09:48:55 AM 47.1067 -122.3278 31° Northeast 251 289 6,600 -1,390 Descending Seattle Center
Tue 09:49:56 AM 47.1736 -122.3125 North 246 283 5,100 -1,475 Descending Seattle Center
Tue 09:51:00 AM 47.2689 -122.3122 10° North  Level Estimated

Login

Don't have an account? Register now (free) for customized features, flight alerts, and more!